createdAt,value
2018-02-01T00:00:08.225Z,5.2
2018-02-01T00:01:09.986Z,5.2
2018-02-01T00:02:11.407Z,5.2
2018-02-01T00:03:12.873Z,5.2
2018-02-01T00:04:14.370Z,5.2
2018-02-01T00:05:16.209Z,5.2
2018-02-01T00:06:17.624Z,5.1
2018-02-01T00:07:19.056Z,5.1
2018-02-01T00:08:20.739Z,5.1
2018-02-01T00:09:22.161Z,5.2
2018-02-01T00:10:23.577Z,5.1
2018-02-01T00:11:25.028Z,5.1
2018-02-01T00:12:26.828Z,5.1
2018-02-01T00:13:28.396Z,5.1
2018-02-01T00:14:29.789Z,5.1
2018-02-01T00:15:31.391Z,5.1
2018-02-01T00:16:32.809Z,5.1
2018-02-01T00:17:34.508Z,5.1
2018-02-01T00:18:36.266Z,5.1
2018-02-01T00:19:37.704Z,5.1
2018-02-01T00:20:39.587Z,5.0
2018-02-01T00:21:41.293Z,5.1
2018-02-01T00:22:42.717Z,5.0
2018-02-01T00:23:44.219Z,5.0
2018-02-01T00:24:45.613Z,5.0
2018-02-01T00:25:46.995Z,5.0
2018-02-01T00:26:48.509Z,4.9
2018-02-01T00:27:49.922Z,4.9
2018-02-01T00:28:51.335Z,4.9
2018-02-01T00:29:53.164Z,4.9
2018-02-01T00:30:55.018Z,4.9
2018-02-01T00:31:56.412Z,4.8
2018-02-01T00:32:57.864Z,4.8
2018-02-01T00:33:59.487Z,4.7
2018-02-01T00:35:00.902Z,4.8
2018-02-01T00:36:02.747Z,4.8
2018-02-01T00:37:04.238Z,4.7
2018-02-01T00:38:05.655Z,4.8
2018-02-01T00:39:07.413Z,4.8
2018-02-01T00:40:09.436Z,4.7
2018-02-01T00:41:10.891Z,4.8
2018-02-01T00:42:12.618Z,4.8
2018-02-01T00:43:13.996Z,4.6
2018-02-01T00:44:15.573Z,4.7
2018-02-01T00:45:17.462Z,4.7
2018-02-01T00:46:18.940Z,4.7
2018-02-01T00:47:20.396Z,4.7
2018-02-01T00:48:22.263Z,4.7
2018-02-01T00:49:23.752Z,4.7
2018-02-01T00:50:25.456Z,4.7
2018-02-01T00:51:26.854Z,4.7
2018-02-01T00:52:28.431Z,4.7
2018-02-01T00:53:29.853Z,4.7
2018-02-01T00:54:31.334Z,4.6
2018-02-01T00:55:32.836Z,4.6
2018-02-01T00:56:34.739Z,4.6
2018-02-01T00:57:36.349Z,4.6
2018-02-01T00:58:37.810Z,4.5
2018-02-01T00:59:39.201Z,4.6
2018-02-01T01:00:40.682Z,4.5
2018-02-01T01:01:42.305Z,4.5
2018-02-01T01:02:43.772Z,4.6
2018-02-01T01:03:45.223Z,4.6
2018-02-01T01:04:46.658Z,4.4
2018-02-01T01:05:48.105Z,4.5
2018-02-01T01:06:49.770Z,4.4
2018-02-01T01:07:51.342Z,4.5
2018-02-01T01:08:52.942Z,4.5
2018-02-01T01:09:54.352Z,4.5
2018-02-01T01:10:55.795Z,4.5
2018-02-01T01:11:57.202Z,4.4
2018-02-01T01:12:58.785Z,4.5
2018-02-01T01:14:00.200Z,4.4
2018-02-01T01:15:01.873Z,4.5
2018-02-01T01:16:03.414Z,4.4
2018-02-01T01:17:05.300Z,4.4
2018-02-01T01:18:06.894Z,4.4
2018-02-01T01:19:08.329Z,4.5
2018-02-01T01:20:10.023Z,4.4
2018-02-01T01:21:11.508Z,4.4
2018-02-01T01:22:12.993Z,4.4
2018-02-01T01:23:14.470Z,4.4
2018-02-01T01:24:16.069Z,4.4
2018-02-01T01:25:17.564Z,4.5
2018-02-01T01:26:19.224Z,4.4
2018-02-01T01:27:20.614Z,4.3
2018-02-01T01:28:22.274Z,4.3
2018-02-01T01:29:23.682Z,4.3
2018-02-01T01:30:25.071Z,4.2
2018-02-01T01:31:26.508Z,4.2
2018-02-01T01:32:28.022Z,4.2
2018-02-01T01:33:29.476Z,4.3
2018-02-01T01:34:31.019Z,4.2
2018-02-01T01:35:32.407Z,4.2
2018-02-01T01:36:33.794Z,4.2
2018-02-01T01:37:35.300Z,4.2
2018-02-01T01:38:36.728Z,4.3
2018-02-01T01:39:38.206Z,4.2
2018-02-01T01:40:39.862Z,4.3
2018-02-01T01:41:41.314Z,4.4
2018-02-01T01:42:42.768Z,4.2
2018-02-01T01:43:44.412Z,4.3
2018-02-01T01:44:46.220Z,4.2
2018-02-01T01:45:47.787Z,4.3
2018-02-01T01:46:49.334Z,4.3
2018-02-01T01:47:51.068Z,4.2
2018-02-01T01:48:52.464Z,4.2
2018-02-01T01:49:54.117Z,4.2
2018-02-01T01:50:55.538Z,4.1
2018-02-01T01:51:57.153Z,4.2
2018-02-01T01:52:58.808Z,4.2
2018-02-01T01:54:01.066Z,4.2
2018-02-01T01:55:03.519Z,4.2
2018-02-01T01:56:05.063Z,4.2
2018-02-01T01:57:06.591Z,4.2
2018-02-01T01:58:08.150Z,4.2
2018-02-01T01:59:09.708Z,4.2
2018-02-01T02:00:11.206Z,4.2
2018-02-01T02:01:12.666Z,4.2
2018-02-01T02:02:14.030Z,4.2
2018-02-01T02:03:15.671Z,4.2
2018-02-01T02:04:17.093Z,4.2
2018-02-01T02:05:18.623Z,4.1
2018-02-01T02:06:20.078Z,4.1
2018-02-01T02:07:21.716Z,4.2
2018-02-01T02:08:23.250Z,4.1
2018-02-01T02:09:24.696Z,4.1
2018-02-01T02:10:26.092Z,4.2
2018-02-01T02:11:27.530Z,4.2
2018-02-01T02:12:28.902Z,4.1
2018-02-01T02:13:30.276Z,4.1
2018-02-01T02:14:31.661Z,4.0
2018-02-01T02:15:33.159Z,4.0
2018-02-01T02:16:34.561Z,4.0
2018-02-01T02:17:36.025Z,4.0
2018-02-01T02:18:37.636Z,4.0
2018-02-01T02:19:39.024Z,4.0
2018-02-01T02:20:40.531Z,3.9
2018-02-01T02:21:41.953Z,4.0
2018-02-01T02:22:43.366Z,4.0
2018-02-01T02:23:44.784Z,4.0
2018-02-01T02:24:46.229Z,4.0
2018-02-01T02:25:48.012Z,4.0
2018-02-01T02:26:50.721Z,4.0
2018-02-01T02:27:52.101Z,4.0
2018-02-01T02:28:53.716Z,4.0
2018-02-01T02:29:55.144Z,4.0
2018-02-01T02:30:56.632Z,4.0
2018-02-01T02:31:58.103Z,4.0
2018-02-01T02:32:59.551Z,4.0
2018-02-01T02:34:00.939Z,4.0
2018-02-01T02:35:02.371Z,4.0
2018-02-01T02:36:03.779Z,4.0
2018-02-01T02:37:05.181Z,4.0
2018-02-01T02:38:06.601Z,3.9
2018-02-01T02:39:08.091Z,3.9
2018-02-01T02:40:09.617Z,3.9
2018-02-01T02:41:11.323Z,3.9
2018-02-01T02:42:12.808Z,4.0
2018-02-01T02:43:14.448Z,3.9
2018-02-01T02:44:16.084Z,3.9
2018-02-01T02:45:17.795Z,3.9
2018-02-01T02:46:19.268Z,3.8
2018-02-01T02:47:20.973Z,3.9
2018-02-01T02:48:22.431Z,3.9
2018-02-01T02:49:24.027Z,3.9
2018-02-01T02:50:25.498Z,3.9
2018-02-01T02:51:26.941Z,3.9
2018-02-01T02:52:28.376Z,3.9
2018-02-01T02:53:30.058Z,3.8
2018-02-01T02:54:31.472Z,3.7
2018-02-01T02:55:33.054Z,3.8
2018-02-01T02:56:34.500Z,3.8
2018-02-01T02:57:35.937Z,3.9
2018-02-01T02:58:37.486Z,3.9
2018-02-01T02:59:38.853Z,3.8
2018-02-01T03:00:40.452Z,3.8
2018-02-01T03:01:41.852Z,3.8
2018-02-01T03:02:43.238Z,3.8
2018-02-01T03:03:44.644Z,3.9
2018-02-01T03:04:46.209Z,3.9
2018-02-01T03:05:47.578Z,3.9
2018-02-01T03:06:49.040Z,3.8
2018-02-01T03:07:50.716Z,3.8
2018-02-01T03:08:52.146Z,3.8
2018-02-01T03:09:53.627Z,3.7
2018-02-01T03:10:55.125Z,3.7
2018-02-01T03:11:56.631Z,3.8
2018-02-01T03:12:58.038Z,3.9
2018-02-01T03:13:59.455Z,3.8
2018-02-01T03:15:00.938Z,3.8
2018-02-01T03:16:02.359Z,3.9
2018-02-01T03:17:03.744Z,3.8
2018-02-01T03:18:05.155Z,3.8
2018-02-01T03:19:06.620Z,3.8
2018-02-01T03:20:08.007Z,3.8
2018-02-01T03:21:09.446Z,3.9
2018-02-01T03:22:10.934Z,3.8
2018-02-01T03:23:12.310Z,3.8
2018-02-01T03:24:13.774Z,3.9
2018-02-01T03:25:15.201Z,3.8
2018-02-01T03:26:16.733Z,3.7
2018-02-01T03:27:18.182Z,3.7
2018-02-01T03:28:19.595Z,3.7
2018-02-01T03:29:21.043Z,3.8
2018-02-01T03:30:22.476Z,3.7
2018-02-01T03:31:23.946Z,3.7
2018-02-01T03:32:25.376Z,3.7
2018-02-01T03:33:26.819Z,3.7
2018-02-01T03:34:28.264Z,3.7
2018-02-01T03:35:29.648Z,3.8
2018-02-01T03:36:31.086Z,3.7
2018-02-01T03:37:32.500Z,3.7
2018-02-01T03:38:33.934Z,3.8
2018-02-01T03:39:35.377Z,3.7
2018-02-01T03:40:36.978Z,3.7
2018-02-01T03:41:38.394Z,3.6
2018-02-01T03:42:39.885Z,3.7
2018-02-01T03:43:41.364Z,3.7
2018-02-01T03:44:42.852Z,3.7
2018-02-01T03:45:44.309Z,3.7
2018-02-01T03:46:45.778Z,3.7
2018-02-01T03:47:47.147Z,3.7
2018-02-01T03:48:48.529Z,3.8
2018-02-01T03:49:49.949Z,3.9
2018-02-01T03:50:51.415Z,3.8
2018-02-01T03:51:52.812Z,3.8
2018-02-01T03:52:54.255Z,3.7
2018-02-01T03:53:55.722Z,3.8
2018-02-01T03:54:57.139Z,3.7
2018-02-01T03:55:58.535Z,3.7
2018-02-01T03:56:59.982Z,3.8
2018-02-01T03:58:01.414Z,3.7
2018-02-01T03:59:02.863Z,3.7
2018-02-01T04:00:04.308Z,3.7
2018-02-01T04:01:05.762Z,3.7
2018-02-01T04:02:07.127Z,3.8
2018-02-01T04:03:08.511Z,3.8
2018-02-01T04:04:09.969Z,3.7
2018-02-01T04:05:11.363Z,3.7
2018-02-01T04:06:12.785Z,3.7
2018-02-01T04:07:14.202Z,3.7
2018-02-01T04:08:15.676Z,3.8
2018-02-01T04:09:17.140Z,3.7
2018-02-01T04:10:18.592Z,3.8
2018-02-01T04:11:20.043Z,3.8
2018-02-01T04:12:21.483Z,3.8
2018-02-01T04:13:22.956Z,3.8
2018-02-01T04:14:24.336Z,3.8
2018-02-01T04:15:25.775Z,3.7
2018-02-01T04:16:27.147Z,3.8
2018-02-01T04:17:28.518Z,3.7
2018-02-01T04:18:29.982Z,3.8
2018-02-01T04:19:31.371Z,3.7
2018-02-01T04:20:32.815Z,3.7
2018-02-01T04:21:34.291Z,3.7
2018-02-01T04:22:35.743Z,3.8
2018-02-01T04:23:37.136Z,3.8
2018-02-01T04:24:38.533Z,3.7
2018-02-01T04:25:39.972Z,3.8
2018-02-01T04:26:41.518Z,3.7
2018-02-01T04:27:42.951Z,3.7
2018-02-01T04:28:44.412Z,3.7
2018-02-01T04:29:45.841Z,3.7
2018-02-01T04:30:47.374Z,3.7
2018-02-01T04:31:48.856Z,3.7
2018-02-01T04:32:50.272Z,3.7
2018-02-01T04:33:51.725Z,3.7
2018-02-01T04:34:53.237Z,3.8
2018-02-01T04:35:54.815Z,3.7
2018-02-01T04:36:56.375Z,3.7
2018-02-01T04:37:57.749Z,3.7
2018-02-01T04:38:59.186Z,3.7
2018-02-01T04:40:00.561Z,3.7
2018-02-01T04:41:02.023Z,3.7
2018-02-01T04:42:03.410Z,3.7
2018-02-01T04:43:05.130Z,3.7
2018-02-01T04:44:06.595Z,3.7
2018-02-01T04:45:08.307Z,3.7
2018-02-01T04:46:09.707Z,3.6
2018-02-01T04:47:11.273Z,3.6
2018-02-01T04:48:12.647Z,3.5
2018-02-01T04:49:14.071Z,3.6
2018-02-01T04:50:15.480Z,3.5
2018-02-01T04:51:16.872Z,3.5
2018-02-01T04:52:18.255Z,3.6
2018-02-01T04:53:19.674Z,3.5
2018-02-01T04:54:21.109Z,3.5
2018-02-01T04:55:22.604Z,3.5
2018-02-01T04:56:24.126Z,3.6
2018-02-01T04:57:25.491Z,3.5
2018-02-01T04:58:26.910Z,3.6
2018-02-01T04:59:28.676Z,3.6
2018-02-01T05:00:30.113Z,3.5
2018-02-01T05:01:31.804Z,3.6
2018-02-01T05:02:33.248Z,3.5
2018-02-01T05:03:34.804Z,3.6
2018-02-01T05:04:36.292Z,3.6
2018-02-01T05:05:37.676Z,3.5
2018-02-01T05:06:39.142Z,3.5
2018-02-01T05:07:40.886Z,3.6
2018-02-01T05:08:42.911Z,3.5
2018-02-01T05:09:44.383Z,3.6
2018-02-01T05:10:45.919Z,3.5
2018-02-01T05:11:47.334Z,3.5
2018-02-01T05:12:48.740Z,3.5
2018-02-01T05:13:50.107Z,3.5
2018-02-01T05:14:51.610Z,3.5
2018-02-01T05:15:53.023Z,3.5
2018-02-01T05:16:54.401Z,3.4
2018-02-01T05:17:56.233Z,3.4
2018-02-01T05:18:57.611Z,3.4
2018-02-01T05:19:59.198Z,3.4
2018-02-01T05:21:00.670Z,3.4
2018-02-01T05:22:02.155Z,3.4
2018-02-01T05:23:03.541Z,3.5
2018-02-01T05:24:04.984Z,3.4
2018-02-01T05:25:06.753Z,3.4
2018-02-01T05:26:08.476Z,3.3
2018-02-01T05:27:10.001Z,3.3
2018-02-01T05:28:11.456Z,3.3
2018-02-01T05:29:13.246Z,3.4
2018-02-01T05:30:14.992Z,3.3
2018-02-01T05:31:16.501Z,3.4
2018-02-01T05:32:17.964Z,3.4
2018-02-01T05:33:19.696Z,3.4
2018-02-01T05:34:21.394Z,3.4
2018-02-01T05:35:23.173Z,3.4
2018-02-01T05:36:24.565Z,3.4
2018-02-01T05:37:25.968Z,3.3
2018-02-01T05:38:27.504Z,3.3
2018-02-01T05:39:28.876Z,3.4
2018-02-01T05:40:30.266Z,3.4
2018-02-01T05:41:31.897Z,3.2
2018-02-01T05:42:33.512Z,3.4
2018-02-01T05:43:35.641Z,3.4
2018-02-01T05:44:37.158Z,3.4
2018-02-01T05:45:38.645Z,3.3
2018-02-01T05:46:40.016Z,3.3
2018-02-01T05:47:41.436Z,3.3
2018-02-01T05:48:42.835Z,3.3
2018-02-01T05:49:44.226Z,3.4
2018-02-01T05:50:45.610Z,3.4
2018-02-01T05:51:47.241Z,3.4
2018-02-01T05:52:48.945Z,3.4
2018-02-01T05:53:50.347Z,3.4
2018-02-01T05:54:51.813Z,3.3
2018-02-01T05:55:53.325Z,3.4
2018-02-01T05:56:55.032Z,3.3
2018-02-01T05:57:56.470Z,3.2
2018-02-01T05:58:58.012Z,3.3
2018-02-01T05:59:59.720Z,3.4
2018-02-01T06:01:01.484Z,3.3
2018-02-01T06:02:02.938Z,3.3
2018-02-01T06:03:04.458Z,3.3
2018-02-01T06:04:06.131Z,3.2
2018-02-01T06:05:07.647Z,3.3
2018-02-01T06:06:09.566Z,3.3
2018-02-01T06:07:11.327Z,3.2
2018-02-01T06:08:13.042Z,3.3
2018-02-01T06:09:14.968Z,3.3
2018-02-01T06:10:16.465Z,3.4
2018-02-01T06:11:17.891Z,3.3
2018-02-01T06:12:19.643Z,3.4
2018-02-01T06:13:21.125Z,3.4
2018-02-01T06:14:22.808Z,3.2
2018-02-01T06:15:24.214Z,3.2
2018-02-01T06:16:25.687Z,3.2
2018-02-01T06:17:27.051Z,3.3
2018-02-01T06:18:28.595Z,3.4
2018-02-01T06:19:29.992Z,3.4
2018-02-01T06:20:31.456Z,3.2
2018-02-01T06:21:32.842Z,3.2
2018-02-01T06:22:34.561Z,3.2
2018-02-01T06:23:35.981Z,3.3
2018-02-01T06:24:37.379Z,3.2
2018-02-01T06:25:38.827Z,3.3
2018-02-01T06:26:40.851Z,3.3
2018-02-01T06:27:42.511Z,3.2
2018-02-01T06:28:43.984Z,3.3
2018-02-01T06:29:45.497Z,3.2
2018-02-01T06:30:46.901Z,3.3
2018-02-01T06:31:48.292Z,3.3
2018-02-01T06:32:49.704Z,3.3
2018-02-01T06:33:51.120Z,3.2
2018-02-01T06:34:52.494Z,3.3
2018-02-01T06:35:53.859Z,3.3
2018-02-01T06:36:55.302Z,3.2
2018-02-01T06:37:56.744Z,3.3
2018-02-01T06:38:58.214Z,3.4
2018-02-01T06:39:59.604Z,3.2
2018-02-01T06:41:01.225Z,3.2
2018-02-01T06:42:02.613Z,3.3
2018-02-01T06:43:04.220Z,3.4
2018-02-01T06:44:05.625Z,3.3
2018-02-01T06:45:07.138Z,3.3
2018-02-01T06:46:08.534Z,3.3
2018-02-01T06:47:10.024Z,3.3
2018-02-01T06:48:11.426Z,3.3
2018-02-01T06:49:12.827Z,3.3
2018-02-01T06:50:14.294Z,3.3
2018-02-01T06:51:15.827Z,3.3
2018-02-01T06:52:17.472Z,3.4
2018-02-01T06:53:19.023Z,3.2
2018-02-01T06:54:20.623Z,3.2
2018-02-01T06:55:22.373Z,3.4
2018-02-01T06:56:23.727Z,3.3
2018-02-01T06:57:25.116Z,3.4
2018-02-01T06:58:26.823Z,3.3
2018-02-01T06:59:28.227Z,3.3
2018-02-01T07:00:29.647Z,3.3
2018-02-01T07:01:31.035Z,3.3
2018-02-01T07:02:32.612Z,3.4
2018-02-01T07:03:34.639Z,3.2
2018-02-01T07:04:36.277Z,3.2
2018-02-01T07:05:37.857Z,3.3
2018-02-01T07:06:39.274Z,3.4
2018-02-01T07:07:40.720Z,3.4
2018-02-01T07:08:42.133Z,3.4
2018-02-01T07:09:43.509Z,3.4
2018-02-01T07:10:45.130Z,3.5
2018-02-01T07:11:46.598Z,3.4
2018-02-01T07:12:48.206Z,3.3
2018-02-01T07:13:49.697Z,3.4
2018-02-01T07:14:51.126Z,3.4
2018-02-01T07:15:52.517Z,3.4
2018-02-01T07:16:53.922Z,3.3
2018-02-01T07:17:55.348Z,3.3
2018-02-01T07:18:56.801Z,3.4
2018-02-01T07:19:58.192Z,3.4
2018-02-01T07:20:59.581Z,3.4
2018-02-01T07:22:01.295Z,3.4
2018-02-01T07:23:02.686Z,3.5
2018-02-01T07:24:04.093Z,3.5
2018-02-01T07:25:05.745Z,3.4
2018-02-01T07:26:07.153Z,3.4
2018-02-01T07:27:08.492Z,3.4
2018-02-01T07:28:09.865Z,3.5
2018-02-01T07:29:11.293Z,3.4
2018-02-01T07:30:12.920Z,3.4
2018-02-01T07:31:14.400Z,3.5
2018-02-01T07:32:15.972Z,3.4
2018-02-01T07:33:17.312Z,3.5
2018-02-01T07:34:18.688Z,3.5
2018-02-01T07:35:20.110Z,3.4
2018-02-01T07:36:21.578Z,3.5
2018-02-01T07:37:22.988Z,3.5
2018-02-01T07:38:24.424Z,3.6
2018-02-01T07:39:25.840Z,3.7
2018-02-01T07:40:27.231Z,3.7
2018-02-01T07:41:28.816Z,3.7
2018-02-01T07:42:31.075Z,3.8
2018-02-01T07:43:32.833Z,3.8
2018-02-01T07:44:34.182Z,3.8
2018-02-01T07:45:35.578Z,3.8
2018-02-01T07:46:37.004Z,3.8
2018-02-01T07:47:38.405Z,3.8
2018-02-01T07:48:39.815Z,3.9
2018-02-01T07:49:41.397Z,3.9
2018-02-01T07:50:42.818Z,4.0
2018-02-01T07:51:44.255Z,4.1
2018-02-01T07:52:45.665Z,4.0
2018-02-01T07:53:47.211Z,4.0
2018-02-01T07:54:48.870Z,4.0
2018-02-01T07:55:50.547Z,4.1
2018-02-01T07:56:52.704Z,4.2
2018-02-01T07:57:54.394Z,4.1
2018-02-01T07:58:56.532Z,4.1
2018-02-01T07:59:58.335Z,4.1
2018-02-01T08:00:59.876Z,4.1
2018-02-01T08:02:01.599Z,4.1
2018-02-01T08:03:02.987Z,4.2
2018-02-01T08:04:04.375Z,4.1
2018-02-01T08:05:05.832Z,4.2
2018-02-01T08:06:07.319Z,4.3
2018-02-01T08:07:08.865Z,4.3
2018-02-01T08:08:10.295Z,4.4
2018-02-01T08:09:11.860Z,4.4
2018-02-01T08:10:13.343Z,4.4
2018-02-01T08:11:14.960Z,4.4
2018-02-01T08:12:16.384Z,4.4
2018-02-01T08:13:17.766Z,4.4
2018-02-01T08:14:19.160Z,4.5
2018-02-01T08:15:20.549Z,4.6
2018-02-01T08:16:22.313Z,4.7
2018-02-01T08:17:23.802Z,4.9
2018-02-01T08:18:25.510Z,4.9
2018-02-01T08:19:27.376Z,4.9
2018-02-01T08:20:29.119Z,4.9
2018-02-01T08:21:30.514Z,4.9
2018-02-01T08:22:31.951Z,4.9
2018-02-01T08:23:33.361Z,4.9
2018-02-01T08:24:34.764Z,5.1
2018-02-01T08:25:36.253Z,5.1
2018-02-01T08:26:37.664Z,5.2
2018-02-01T08:27:39.091Z,5.2
2018-02-01T08:28:40.525Z,5.3
2018-02-01T08:29:41.933Z,5.5
2018-02-01T08:30:43.352Z,5.7
2018-02-01T08:31:44.872Z,5.7
2018-02-01T08:32:46.300Z,5.9
2018-02-01T08:33:47.719Z,6.1
2018-02-01T08:34:49.222Z,6.2
2018-02-01T08:35:50.630Z,6.1
2018-02-01T08:36:52.037Z,6.1
2018-02-01T08:37:53.473Z,6.2
2018-02-01T08:38:54.908Z,6.2
2018-02-01T08:39:56.347Z,6.3
2018-02-01T08:40:57.765Z,6.3
2018-02-01T08:41:59.166Z,6.1
2018-02-01T08:43:00.614Z,6.2
2018-02-01T08:44:02.008Z,6.5
2018-02-01T08:45:03.466Z,6.6
2018-02-01T08:46:04.967Z,6.8
2018-02-01T08:47:06.348Z,7.0
2018-02-01T08:48:07.732Z,7.3
2018-02-01T08:49:09.138Z,7.3
2018-02-01T08:50:10.558Z,7.3
2018-02-01T08:51:11.963Z,7.4
2018-02-01T08:52:13.426Z,7.5
2018-02-01T08:53:14.798Z,7.6
2018-02-01T08:54:16.244Z,7.5
2018-02-01T08:55:17.755Z,7.7
2018-02-01T08:56:19.215Z,7.7
2018-02-01T08:57:20.632Z,7.9
2018-02-01T08:58:22.087Z,8.0
2018-02-01T08:59:23.616Z,8.0
2018-02-01T09:00:25.019Z,8.2
2018-02-01T09:01:26.470Z,8.3
2018-02-01T09:02:27.908Z,8.4
2018-02-01T09:03:29.336Z,8.5
2018-02-01T09:04:30.795Z,8.4
2018-02-01T09:05:32.198Z,8.3
2018-02-01T09:06:33.605Z,8.5
2018-02-01T09:07:35.070Z,8.6
2018-02-01T09:08:36.483Z,8.8
2018-02-01T09:09:37.870Z,9.0
2018-02-01T09:10:39.248Z,9.3
2018-02-01T09:11:40.720Z,9.2
2018-02-01T09:12:42.130Z,9.4
2018-02-01T09:13:43.513Z,9.5
2018-02-01T09:14:44.945Z,9.7
2018-02-01T09:15:46.449Z,9.7
2018-02-01T09:16:47.893Z,9.7
2018-02-01T09:17:49.265Z,9.5
2018-02-01T09:18:50.808Z,9.5
2018-02-01T09:19:52.180Z,9.6
2018-02-01T09:20:53.613Z,9.9
2018-02-01T09:21:55.025Z,10.0
2018-02-01T09:22:56.470Z,10.1
2018-02-01T09:23:57.856Z,10.0
2018-02-01T09:24:59.259Z,10.3
2018-02-01T09:26:00.743Z,9.9
2018-02-01T09:27:02.156Z,9.9
2018-02-01T09:28:03.580Z,10.2
2018-02-01T09:29:05.017Z,10.2
2018-02-01T09:30:06.469Z,10.1
2018-02-01T09:31:08.036Z,10.1
2018-02-01T09:32:09.474Z,10.1
2018-02-01T09:33:10.944Z,10.0
2018-02-01T09:34:12.374Z,10.2
2018-02-01T09:35:13.787Z,10.4
2018-02-01T09:36:15.222Z,10.9
2018-02-01T09:37:16.716Z,11.4
2018-02-01T09:38:18.155Z,11.5
2018-02-01T09:39:19.607Z,11.6
2018-02-01T09:40:21.135Z,11.6
2018-02-01T09:41:22.546Z,11.7
2018-02-01T09:42:23.933Z,11.6
2018-02-01T09:43:25.338Z,11.8
2018-02-01T09:44:26.763Z,11.7
2018-02-01T09:45:28.173Z,11.5
2018-02-01T09:46:29.701Z,11.8
2018-02-01T09:47:31.258Z,12.2
2018-02-01T09:48:32.587Z,11.6
2018-02-01T09:49:34.042Z,11.8
2018-02-01T09:50:35.500Z,11.9
2018-02-01T09:51:36.897Z,11.8
2018-02-01T09:52:38.308Z,12.3
2018-02-01T09:53:39.747Z,12.9
2018-02-01T09:54:41.237Z,13.1
2018-02-01T09:55:42.637Z,13.1
2018-02-01T09:56:44.099Z,12.4
2018-02-01T09:57:45.511Z,11.7
2018-02-01T09:58:47.030Z,10.7
2018-02-01T09:59:48.457Z,10.1
2018-02-01T10:00:49.889Z,9.7
2018-02-01T10:01:51.455Z,9.5
2018-02-01T10:02:52.854Z,9.4
2018-02-01T10:03:54.299Z,9.0
2018-02-01T10:04:55.700Z,8.7
2018-02-01T10:05:57.143Z,8.4
2018-02-01T10:06:58.539Z,8.2
2018-02-01T10:07:59.963Z,7.9
2018-02-01T10:09:01.606Z,7.9
2018-02-01T10:10:02.963Z,7.7
2018-02-01T10:11:04.408Z,7.6
2018-02-01T10:12:05.863Z,7.5
2018-02-01T10:13:07.281Z,7.4
2018-02-01T10:14:08.677Z,7.5
2018-02-01T10:15:10.074Z,7.2
2018-02-01T10:16:11.493Z,7.2
2018-02-01T10:17:13.012Z,7.2
2018-02-01T10:18:14.458Z,7.1
2018-02-01T10:19:15.883Z,7.1
2018-02-01T10:20:17.311Z,6.9
2018-02-01T10:21:18.697Z,6.8
2018-02-01T10:22:20.181Z,6.7
2018-02-01T10:23:21.610Z,6.7
2018-02-01T10:24:23.004Z,6.9
2018-02-01T10:25:24.395Z,6.9
2018-02-01T10:26:25.852Z,6.9
2018-02-01T10:27:27.232Z,7.1
2018-02-01T10:28:28.677Z,7.2
2018-02-01T10:29:30.110Z,7.3
2018-02-01T10:30:31.550Z,7.2
2018-02-01T10:31:32.924Z,7.2
2018-02-01T10:32:34.318Z,7.2
2018-02-01T10:33:35.703Z,7.4
2018-02-01T10:34:37.216Z,8.0
2018-02-01T10:35:38.598Z,8.8
2018-02-01T10:36:40.052Z,9.4
2018-02-01T10:37:41.475Z,9.5
2018-02-01T10:38:42.921Z,10.0
2018-02-01T10:39:44.355Z,9.1
2018-02-01T10:40:45.782Z,8.8
2018-02-01T10:41:47.190Z,8.6
2018-02-01T10:42:48.610Z,8.4
2018-02-01T10:43:50.054Z,8.1
2018-02-01T10:44:51.470Z,7.9
2018-02-01T10:45:52.876Z,7.9
2018-02-01T10:46:54.286Z,7.8
2018-02-01T10:47:55.715Z,7.7
2018-02-01T10:48:57.115Z,7.5
2018-02-01T10:49:58.502Z,7.3
2018-02-01T10:50:59.922Z,7.1
2018-02-01T10:52:01.447Z,7.0
2018-02-01T10:53:02.869Z,6.9
2018-02-01T10:54:04.294Z,7.0
2018-02-01T10:55:05.829Z,6.9
2018-02-01T10:56:07.243Z,6.9
2018-02-01T10:57:08.651Z,6.8
2018-02-01T10:58:10.080Z,6.8
2018-02-01T10:59:11.547Z,6.8
2018-02-01T11:00:13.013Z,6.8
2018-02-01T11:01:14.388Z,6.8
2018-02-01T11:02:15.816Z,6.7
2018-02-01T11:03:17.223Z,6.7
2018-02-01T11:04:18.669Z,6.8
2018-02-01T11:05:20.103Z,6.8
2018-02-01T11:06:21.471Z,6.8
2018-02-01T11:07:22.845Z,6.8
2018-02-01T11:08:24.241Z,6.7
2018-02-01T11:09:25.637Z,6.8
2018-02-01T11:10:27.072Z,6.7
2018-02-01T11:11:28.508Z,6.8
2018-02-01T11:12:29.920Z,6.8
2018-02-01T11:13:31.409Z,6.9
2018-02-01T11:14:32.861Z,6.9
2018-02-01T11:15:34.280Z,7.0
2018-02-01T11:16:35.699Z,7.0
2018-02-01T11:17:37.208Z,7.1
2018-02-01T11:18:38.594Z,7.2
2018-02-01T11:19:40.060Z,7.3
2018-02-01T11:20:41.534Z,7.3
2018-02-01T11:21:42.993Z,7.3
2018-02-01T11:22:44.423Z,7.5
2018-02-01T11:23:45.975Z,7.5
2018-02-01T11:24:47.371Z,7.3
2018-02-01T11:25:48.791Z,7.5
2018-02-01T11:26:50.251Z,7.5
2018-02-01T11:27:51.709Z,7.5
2018-02-01T11:28:53.175Z,7.6
2018-02-01T11:29:54.635Z,7.7
2018-02-01T11:30:56.119Z,7.6
2018-02-01T11:31:57.548Z,7.5
2018-02-01T11:32:58.971Z,7.5
2018-02-01T11:34:00.419Z,7.3
2018-02-01T11:35:01.912Z,7.4
2018-02-01T11:36:03.310Z,7.3
2018-02-01T11:37:04.757Z,7.5
2018-02-01T11:38:06.239Z,7.5
2018-02-01T11:39:07.700Z,7.5
2018-02-01T11:40:09.153Z,7.4
2018-02-01T11:41:10.603Z,7.5
2018-02-01T11:42:12.042Z,7.6
2018-02-01T11:43:13.534Z,7.5
2018-02-01T11:44:15.344Z,7.4
2018-02-01T11:45:16.778Z,7.4
2018-02-01T11:46:18.233Z,7.5
2018-02-01T11:47:19.747Z,7.6
2018-02-01T11:48:21.210Z,7.6
2018-02-01T11:49:22.658Z,7.7
2018-02-01T11:50:24.038Z,7.7
2018-02-01T11:51:29.265Z,7.7
2018-02-01T11:52:30.731Z,7.9
2018-02-01T11:53:32.170Z,7.9
2018-02-01T11:54:33.681Z,7.9
2018-02-01T11:55:35.260Z,8.0
2018-02-01T11:56:36.805Z,8.1
2018-02-01T11:57:38.255Z,7.9
2018-02-01T11:58:39.707Z,7.9
2018-02-01T11:59:41.256Z,7.9
2018-02-01T12:00:42.702Z,7.8
2018-02-01T12:01:44.208Z,7.8
2018-02-01T12:02:45.842Z,7.7
2018-02-01T12:03:47.228Z,7.8
2018-02-01T12:04:48.803Z,7.8
2018-02-01T12:05:50.413Z,7.8
2018-02-01T12:06:51.941Z,7.8
2018-02-01T12:07:53.456Z,7.7
2018-02-01T12:08:54.882Z,7.7
2018-02-01T12:09:56.333Z,7.7
2018-02-01T12:10:57.750Z,7.9
2018-02-01T12:11:59.261Z,7.9
2018-02-01T12:13:00.797Z,7.9
2018-02-01T12:14:02.167Z,7.9
2018-02-01T12:15:03.571Z,7.9
2018-02-01T12:16:04.990Z,7.9
2018-02-01T12:17:06.881Z,7.9
2018-02-01T12:18:08.404Z,8.0
2018-02-01T12:19:09.937Z,8.1
2018-02-01T12:20:11.540Z,8.0
2018-02-01T12:21:12.976Z,8.0
2018-02-01T12:22:14.424Z,7.9
2018-02-01T12:23:16.602Z,7.8
2018-02-01T12:24:18.168Z,7.8
2018-02-01T12:25:19.554Z,7.7
2018-02-01T12:26:21.054Z,7.8
2018-02-01T12:27:22.677Z,7.7
2018-02-01T12:28:24.120Z,7.8
2018-02-01T12:29:26.309Z,7.8
2018-02-01T12:30:27.939Z,7.8
2018-02-01T12:31:29.422Z,7.7
2018-02-01T12:32:33.669Z,7.7
2018-02-01T12:33:35.298Z,7.8
2018-02-01T12:34:36.878Z,7.8
2018-02-01T12:35:38.299Z,7.8
2018-02-01T12:36:39.752Z,7.7
2018-02-01T12:37:41.262Z,7.6
2018-02-01T12:38:42.761Z,7.6
2018-02-01T12:39:44.217Z,7.7
2018-02-01T12:40:45.637Z,7.8
2018-02-01T12:41:47.141Z,7.9
2018-02-01T12:42:48.617Z,7.9
2018-02-01T12:43:50.149Z,7.7
2018-02-01T12:44:51.626Z,7.6
2018-02-01T12:45:53.317Z,7.6
2018-02-01T12:46:54.901Z,7.5
2018-02-01T12:47:56.530Z,7.6
2018-02-01T12:49:02.535Z,7.3
2018-02-01T12:50:04.258Z,7.3
2018-02-01T12:51:05.684Z,7.3
2018-02-01T12:52:07.118Z,7.1
2018-02-01T12:53:08.543Z,7.1
2018-02-01T12:54:10.110Z,7.2
2018-02-01T12:55:11.582Z,7.2
2018-02-01T12:56:13.088Z,7.2
2018-02-01T12:57:14.797Z,7.2
2018-02-01T12:58:16.364Z,7.2
2018-02-01T12:59:17.798Z,7.3
2018-02-01T13:00:19.229Z,7.3
2018-02-01T13:01:20.603Z,7.3
2018-02-01T13:02:22.037Z,7.3
2018-02-01T13:03:23.494Z,7.3
2018-02-01T13:04:24.953Z,7.3
2018-02-01T13:05:26.441Z,7.4
2018-02-01T13:06:27.897Z,7.5
2018-02-01T13:07:29.305Z,7.3
2018-02-01T13:08:30.823Z,7.3
2018-02-01T13:09:32.307Z,7.3
2018-02-01T13:10:33.757Z,7.2
2018-02-01T13:11:35.197Z,7.3
2018-02-01T13:12:36.713Z,7.4
2018-02-01T13:13:38.127Z,7.5
2018-02-01T13:14:39.596Z,7.5
2018-02-01T13:15:41.055Z,7.4
2018-02-01T13:16:42.514Z,7.4
2018-02-01T13:17:43.918Z,7.2
2018-02-01T13:18:45.370Z,7.2
2018-02-01T13:19:46.967Z,7.2
2018-02-01T13:20:48.380Z,7.0
2018-02-01T13:21:49.827Z,6.9
2018-02-01T13:22:51.278Z,6.8
2018-02-01T13:23:52.707Z,6.7
2018-02-01T13:24:54.252Z,6.6
2018-02-01T13:25:55.826Z,6.6
2018-02-01T13:26:57.256Z,6.6
2018-02-01T13:27:58.660Z,6.7
2018-02-01T13:29:00.113Z,6.6
2018-02-01T13:30:01.686Z,6.8
2018-02-01T13:31:03.101Z,6.7
2018-02-01T13:32:04.726Z,6.6
2018-02-01T13:33:06.168Z,6.7
2018-02-01T13:34:07.641Z,6.7
2018-02-01T13:35:09.214Z,6.6
2018-02-01T13:36:10.824Z,6.5
2018-02-01T13:37:12.365Z,6.6
2018-02-01T13:38:13.774Z,6.6
2018-02-01T13:39:15.161Z,6.5
2018-02-01T13:40:16.743Z,6.6
2018-02-01T13:41:18.142Z,6.5
2018-02-01T13:42:19.595Z,6.4
2018-02-01T13:43:21.095Z,6.3
2018-02-01T13:44:22.585Z,6.3
2018-02-01T13:45:24.033Z,6.2
2018-02-01T13:46:25.629Z,6.2
2018-02-01T13:47:27.015Z,6.2
2018-02-01T13:48:28.458Z,6.2
2018-02-01T13:49:29.809Z,6.3
2018-02-01T13:50:31.226Z,6.1
2018-02-01T13:51:32.669Z,6.2
2018-02-01T13:52:34.080Z,6.3
2018-02-01T13:53:35.525Z,6.3
2018-02-01T13:54:36.925Z,6.4
2018-02-01T13:55:38.363Z,6.4
2018-02-01T13:56:39.751Z,6.5
2018-02-01T13:57:41.211Z,6.5
2018-02-01T13:58:42.620Z,6.6
2018-02-01T13:59:44.676Z,6.5
2018-02-01T14:00:46.119Z,6.5
2018-02-01T14:01:47.504Z,6.5
2018-02-01T14:02:49.016Z,6.5
2018-02-01T14:03:50.481Z,6.5
2018-02-01T14:04:51.886Z,6.6